createdAt,value
2022-08-17T00:02:26.002Z,73.00
2022-08-17T00:04:57.334Z,72.80
2022-08-17T00:07:24.488Z,72.80
2022-08-17T00:09:51.225Z,72.80
2022-08-17T00:12:41.140Z,72.80
2022-08-17T00:15:10.322Z,72.80
2022-08-17T00:17:37.937Z,73.10
2022-08-17T00:20:05.433Z,73.30
2022-08-17T00:22:36.378Z,73.30
2022-08-17T00:25:12.016Z,73.50
2022-08-17T00:27:39.180Z,73.60
2022-08-17T00:30:08.673Z,73.60
2022-08-17T00:33:12.594Z,73.60
2022-08-17T00:35:32.246Z,73.50
2022-08-17T00:37:59.063Z,73.80
2022-08-17T00:40:25.949Z,73.90
2022-08-17T00:42:53.409Z,73.90
2022-08-17T00:45:20.564Z,73.90
2022-08-17T00:47:47.863Z,73.80
2022-08-17T00:50:17.190Z,73.90
2022-08-17T00:52:52.388Z,73.80
2022-08-17T00:55:20.718Z,73.70
2022-08-17T00:57:55.210Z,73.80
2022-08-17T01:00:35.848Z,73.80
2022-08-17T01:03:07.821Z,73.70
2022-08-17T01:05:38.358Z,73.70
2022-08-17T01:08:13.030Z,73.80
2022-08-17T01:10:58.623Z,73.90
2022-08-17T01:13:40.746Z,73.90
2022-08-17T01:16:28.748Z,74.00
2022-08-17T01:19:02.097Z,73.90
2022-08-17T01:21:50.571Z,73.80
2022-08-17T01:24:21.403Z,74.10
2022-08-17T01:26:48.464Z,74.30
2022-08-17T01:29:15.995Z,74.60
2022-08-17T01:31:47.094Z,74.70
2022-08-17T01:34:15.919Z,74.70
2022-08-17T01:36:47.271Z,74.80
2022-08-17T01:39:43.463Z,74.80
2022-08-17T01:42:34.860Z,74.80
2022-08-17T01:45:18.170Z,74.80
2022-08-17T01:47:45.743Z,75.00
2022-08-17T01:50:17.934Z,75.00
2022-08-17T01:52:47.055Z,75.00
2022-08-17T01:55:17.429Z,74.90
2022-08-17T01:57:45.548Z,74.90
2022-08-17T02:00:14.154Z,75.00
2022-08-17T02:02:41.529Z,75.10
2022-08-17T02:05:08.973Z,75.10
2022-08-17T02:08:00.015Z,75.20
2022-08-17T02:10:23.650Z,75.20
2022-08-17T02:12:50.495Z,75.40
2022-08-17T02:15:17.632Z,75.60
2022-08-17T02:17:44.476Z,75.50
2022-08-17T02:20:11.183Z,75.40
2022-08-17T02:22:41.005Z,75.80
2022-08-17T02:25:11.106Z,75.70
2022-08-17T02:27:39.221Z,75.80
2022-08-17T02:31:00.117Z,76.10
2022-08-17T02:32:56.110Z,76.20
2022-08-17T02:35:23.474Z,76.00
2022-08-17T02:37:51.924Z,75.70
2022-08-17T02:40:36.056Z,75.50
2022-08-17T02:43:04.214Z,75.40
2022-08-17T02:45:30.929Z,75.40
2022-08-17T02:47:57.640Z,75.20
2022-08-17T02:50:25.059Z,75.40
2022-08-17T02:53:02.447Z,75.60
2022-08-17T02:55:35.012Z,75.90
2022-08-17T02:58:03.573Z,75.80
2022-08-17T03:00:36.559Z,75.80
2022-08-17T03:03:05.926Z,75.70
2022-08-17T03:05:35.418Z,76.00
2022-08-17T03:08:03.051Z,76.20
2022-08-17T03:10:29.823Z,76.00
2022-08-17T03:12:56.652Z,76.00
2022-08-17T03:15:27.315Z,76.10
2022-08-17T03:17:55.228Z,76.30
2022-08-17T03:20:22.725Z,76.30
2022-08-17T03:22:53.608Z,76.10
2022-08-17T03:25:26.829Z,76.10
2022-08-17T03:27:54.641Z,75.90
2022-08-17T03:30:25.175Z,75.90
2022-08-17T03:32:54.815Z,75.80
2022-08-17T03:35:25.323Z,75.80
2022-08-17T03:37:59.991Z,75.70
2022-08-17T03:40:39.902Z,75.50
2022-08-17T03:43:17.188Z,75.50
2022-08-17T03:46:02.339Z,75.40
2022-08-17T03:48:47.881Z,75.40
2022-08-17T03:51:38.382Z,75.50
2022-08-17T03:54:25.025Z,75.70
2022-08-17T03:57:06.182Z,76.00
2022-08-17T03:59:34.065Z,76.20
2022-08-17T04:02:04.915Z,76.20
2022-08-17T04:04:31.631Z,76.40
2022-08-17T04:06:58.849Z,76.30
2022-08-17T04:09:25.632Z,76.10
2022-08-17T04:11:53.128Z,76.10
2022-08-17T04:14:20.291Z,76.10
2022-08-17T04:16:47.120Z,76.10
2022-08-17T04:19:13.842Z,76.00
2022-08-17T04:21:40.878Z,76.10
2022-08-17T04:24:07.734Z,76.40
2022-08-17T04:26:53.039Z,76.50
2022-08-17T04:29:21.513Z,76.60
2022-08-17T04:31:48.509Z,76.70
2022-08-17T04:34:19.552Z,76.70
2022-08-17T04:36:50.367Z,76.50
2022-08-17T04:39:17.508Z,76.70
2022-08-17T04:42:02.768Z,76.70
2022-08-17T04:44:37.779Z,76.70
2022-08-17T04:47:05.255Z,76.50
2022-08-17T04:49:32.548Z,76.50
2022-08-17T04:52:04.435Z,76.60
2022-08-17T04:54:31.913Z,76.50
2022-08-17T04:56:58.687Z,76.50
2022-08-17T04:59:25.436Z,76.70
2022-08-17T05:01:52.466Z,77.00
2022-08-17T05:04:33.950Z,76.90
2022-08-17T05:07:03.929Z,77.00
2022-08-17T05:09:31.056Z,76.90
2022-08-17T05:12:01.771Z,76.70
2022-08-17T05:14:32.721Z,76.50
2022-08-17T05:17:01.505Z,76.20
2022-08-17T05:19:30.944Z,76.20
2022-08-17T05:21:57.706Z,76.30
2022-08-17T05:24:42.518Z,76.70
2022-08-17T05:27:10.529Z,77.20
2022-08-17T05:29:44.569Z,77.00
2022-08-17T05:32:39.691Z,76.90
2022-08-17T05:35:00.414Z,77.00
2022-08-17T05:37:27.736Z,76.90
2022-08-17T05:39:54.722Z,76.70
2022-08-17T05:42:22.155Z,76.50
2022-08-17T05:44:48.896Z,76.30
2022-08-17T05:47:15.666Z,76.50
2022-08-17T05:49:42.469Z,76.40
2022-08-17T05:52:48.167Z,76.10
2022-08-17T05:55:32.646Z,75.80
2022-08-17T05:58:35.451Z,75.70
2022-08-17T06:01:36.400Z,75.60
2022-08-17T06:04:14.304Z,75.40
2022-08-17T06:06:49.495Z,75.40
2022-08-17T06:09:36.973Z,75.20
2022-08-17T06:12:31.991Z,75.60
2022-08-17T06:15:07.424Z,75.70
2022-08-17T06:17:35.543Z,75.40
2022-08-17T06:20:10.376Z,75.30
2022-08-17T06:22:43.847Z,75.20
2022-08-17T06:25:18.091Z,75.00
2022-08-17T06:27:59.165Z,75.00
2022-08-17T06:30:29.547Z,75.20
2022-08-17T06:33:23.758Z,75.10
2022-08-17T06:36:09.364Z,74.90
2022-08-17T06:38:45.284Z,74.60
2022-08-17T06:41:26.718Z,74.40
2022-08-17T06:44:11.941Z,74.70
2022-08-17T06:47:27.994Z,74.50
2022-08-17T06:50:15.357Z,74.00
2022-08-17T06:52:57.539Z,73.80
2022-08-17T06:55:45.051Z,73.70
2022-08-17T06:58:16.674Z,73.40
2022-08-17T07:00:47.383Z,73.50
2022-08-17T07:03:20.979Z,73.50
2022-08-17T07:05:53.402Z,73.30
2022-08-17T07:08:57.254Z,73.60
2022-08-17T07:11:27.692Z,73.00
2022-08-17T07:14:03.139Z,72.90
2022-08-17T07:16:37.638Z,72.20
2022-08-17T07:19:10.764Z,72.70
2022-08-17T07:21:54.893Z,73.40
2022-08-17T07:24:48.888Z,73.60
2022-08-17T07:27:21.841Z,73.30
2022-08-17T07:30:10.240Z,72.80
2022-08-17T07:32:45.215Z,73.30
2022-08-17T07:35:16.662Z,73.50
2022-08-17T07:37:54.053Z,72.90
2022-08-17T07:40:26.621Z,73.00
2022-08-17T07:43:11.500Z,72.70
2022-08-17T07:46:16.002Z,72.30
2022-08-17T07:48:49.557Z,72.40
2022-08-17T07:51:34.464Z,72.50
2022-08-17T07:54:22.936Z,72.30
2022-08-17T07:57:00.991Z,71.80
2022-08-17T08:02:21.433Z,70.60
2022-08-17T08:05:29.990Z,70.40
2022-08-17T08:08:42.153Z,70.20
2022-08-17T08:11:16.154Z,69.90
2022-08-17T08:13:46.356Z,69.50
2022-08-17T08:16:29.870Z,69.10
2022-08-17T08:19:05.367Z,69.00
2022-08-17T08:21:47.710Z,68.70
2022-08-17T08:24:42.086Z,68.70
2022-08-17T08:27:22.233Z,68.50
2022-08-17T08:29:57.774Z,68.90
2022-08-17T08:33:04.170Z,68.70
2022-08-17T08:36:04.184Z,68.50
2022-08-17T08:38:39.577Z,68.30
2022-08-17T08:41:16.995Z,68.40
2022-08-17T08:45:03.579Z,68.20
2022-08-17T08:47:49.331Z,68.10
2022-08-17T08:50:40.917Z,68.10
2022-08-17T08:53:36.825Z,68.30
2022-08-17T08:56:16.356Z,68.20
2022-08-17T08:59:02.228Z,68.30
2022-08-17T09:01:45.292Z,68.10
2022-08-17T09:05:02.823Z,68.20
2022-08-17T09:07:41.762Z,68.10
2022-08-17T09:10:34.780Z,68.10
2022-08-17T09:13:22.099Z,67.90
2022-08-17T09:15:57.267Z,67.80
2022-08-17T09:19:02.629Z,67.60
2022-08-17T09:21:26.735Z,68.00
2022-08-17T09:24:04.851Z,68.10
2022-08-17T09:26:41.174Z,67.90
2022-08-17T09:29:15.672Z,67.70
2022-08-17T09:32:03.840Z,67.40
2022-08-17T09:34:57.076Z,67.40
2022-08-17T09:37:37.583Z,67.60
2022-08-17T09:40:31.838Z,67.30
2022-08-17T09:43:28.637Z,67.30
2022-08-17T09:46:03.463Z,66.70
2022-08-17T09:48:44.440Z,67.10
2022-08-17T09:51:21.944Z,67.10
2022-08-17T09:53:49.834Z,66.80
2022-08-17T09:56:43.791Z,66.30
2022-08-17T09:59:28.108Z,66.30
2022-08-17T10:02:27.773Z,66.40
2022-08-17T10:05:08.356Z,66.30
2022-08-17T10:07:59.780Z,66.30
2022-08-17T10:10:35.236Z,66.20
2022-08-17T10:13:18.722Z,66.70
2022-08-17T10:16:11.668Z,67.00
2022-08-17T10:18:49.697Z,66.50
2022-08-17T10:21:37.148Z,66.20
2022-08-17T10:24:32.702Z,66.10
2022-08-17T10:27:02.872Z,66.30
2022-08-17T10:29:48.887Z,66.20
2022-08-17T10:32:32.800Z,66.10
2022-08-17T10:35:16.542Z,65.80
2022-08-17T10:38:12.037Z,65.50
2022-08-17T10:41:11.297Z,65.40
2022-08-17T10:44:37.972Z,66.00
2022-08-17T10:47:07.326Z,67.20
2022-08-17T10:49:36.900Z,68.20
2022-08-17T10:52:22.835Z,69.00
2022-08-17T10:54:51.829Z,68.30
2022-08-17T10:57:34.311Z,69.30
2022-08-17T11:00:25.558Z,69.70
2022-08-17T11:02:56.087Z,69.50
2022-08-17T11:05:56.262Z,70.10
2022-08-17T11:08:25.762Z,73.10
2022-08-17T11:10:58.501Z,74.20
2022-08-17T11:14:09.894Z,75.20
2022-08-17T11:16:51.451Z,75.50
2022-08-17T11:19:51.202Z,71.70
2022-08-17T11:22:39.280Z,70.40
2022-08-17T11:25:21.283Z,70.10
2022-08-17T11:27:53.707Z,69.50
2022-08-17T11:30:40.794Z,70.00
2022-08-17T11:33:28.948Z,69.90
2022-08-17T11:36:23.114Z,69.80
2022-08-17T11:39:00.278Z,69.20
2022-08-17T11:41:39.521Z,68.60
2022-08-17T11:44:37.759Z,68.40
2022-08-17T11:47:33.232Z,70.30
2022-08-17T11:51:01.294Z,71.70
2022-08-17T11:53:37.229Z,72.00
2022-08-17T11:56:31.698Z,72.40
2022-08-17T11:59:00.730Z,73.20
2022-08-17T12:01:29.028Z,73.40
2022-08-17T12:04:16.734Z,72.40
2022-08-17T12:06:56.974Z,71.90
2022-08-17T12:09:31.827Z,72.20
2022-08-17T12:12:13.389Z,72.40
2022-08-17T12:17:40.167Z,72.70
2022-08-17T12:20:19.626Z,72.80
2022-08-17T12:22:57.574Z,72.90
2022-08-17T12:25:37.374Z,72.70
2022-08-17T12:28:20.006Z,72.70
2022-08-17T12:30:52.012Z,72.40
2022-08-17T12:33:28.255Z,72.20
2022-08-17T12:36:05.866Z,72.50
2022-08-17T12:38:36.006Z,72.00
2022-08-17T12:41:38.012Z,72.10
2022-08-17T12:44:13.283Z,72.30
2022-08-17T12:46:54.060Z,72.70
2022-08-17T12:49:36.146Z,72.70
2022-08-17T12:52:29.002Z,71.60
2022-08-17T12:54:59.753Z,71.70
2022-08-17T12:57:33.853Z,72.40
2022-08-17T13:00:12.319Z,72.30
2022-08-17T13:02:46.981Z,72.80
2022-08-17T13:05:37.773Z,72.50
2022-08-17T13:08:17.423Z,71.60
2022-08-17T13:10:58.133Z,70.70
2022-08-17T13:13:28.235Z,69.70
2022-08-17T13:16:01.075Z,68.80
2022-08-17T13:18:39.806Z,68.00
2022-08-17T13:21:26.623Z,67.50
2022-08-17T13:24:04.607Z,67.00
2022-08-17T13:26:54.315Z,67.20
2022-08-17T13:29:45.358Z,66.90
2022-08-17T13:32:44.107Z,66.90
2022-08-17T13:35:47.669Z,66.60
2022-08-17T13:38:45.647Z,66.70
2022-08-17T13:41:34.628Z,66.30
2022-08-17T13:44:02.009Z,66.50
2022-08-17T13:46:31.259Z,66.70
2022-08-17T13:49:05.493Z,67.00
2022-08-17T13:51:42.973Z,67.10
2022-08-17T13:54:27.740Z,67.00
2022-08-17T13:57:02.299Z,67.10
2022-08-17T13:59:54.426Z,67.50
2022-08-17T14:02:27.653Z,67.50
2022-08-17T14:04:56.325Z,67.60
2022-08-17T14:07:30.997Z,67.60
2022-08-17T14:09:59.921Z,67.40
2022-08-17T14:12:28.932Z,67.20
2022-08-17T14:14:56.423Z,67.10
2022-08-17T14:17:25.066Z,66.90
2022-08-17T14:19:52.569Z,66.80
2022-08-17T14:22:25.631Z,66.60
2022-08-17T14:24:52.524Z,66.60
2022-08-17T14:27:20.349Z,66.70
2022-08-17T14:29:47.910Z,66.70
2022-08-17T14:32:27.527Z,66.60
2022-08-17T14:34:56.645Z,66.50
2022-08-17T14:37:27.827Z,66.20
2022-08-17T14:39:56.392Z,66.20
2022-08-17T14:42:26.104Z,65.80
2022-08-17T14:44:54.906Z,65.60
2022-08-17T14:47:22.239Z,65.10
2022-08-17T14:49:49.463Z,65.00
2022-08-17T14:52:22.415Z,65.10
2022-08-17T14:54:54.112Z,65.30
2022-08-17T14:57:33.369Z,65.60
2022-08-17T15:00:01.873Z,65.70
2022-08-17T15:02:30.914Z,65.70
2022-08-17T15:05:04.006Z,65.50
2022-08-17T15:07:31.986Z,65.20
2022-08-17T15:10:01.473Z,64.70
2022-08-17T15:12:33.299Z,64.50
2022-08-17T15:15:02.251Z,64.40
2022-08-17T15:17:43.754Z,64.20
2022-08-17T15:20:15.317Z,63.90
2022-08-17T15:22:43.359Z,63.80
2022-08-17T15:25:11.559Z,64.10
2022-08-17T15:27:40.169Z,63.50
2022-08-17T15:30:08.643Z,63.80
2022-08-17T15:32:38.544Z,63.50
2022-08-17T15:35:07.233Z,63.40
2022-08-17T15:37:34.160Z,63.50
2022-08-17T15:40:01.261Z,63.20
2022-08-17T15:42:29.172Z,63.40
2022-08-17T15:44:56.031Z,63.10
2022-08-17T15:47:23.390Z,62.70
2022-08-17T15:49:50.751Z,62.90
2022-08-17T15:52:20.843Z,62.80
2022-08-17T15:54:51.083Z,63.30
2022-08-17T15:57:18.126Z,63.20
2022-08-17T15:59:45.085Z,63.10
2022-08-17T16:03:45.450Z,63.40
2022-08-17T16:05:11.229Z,63.80
2022-08-17T16:07:40.419Z,63.60
2022-08-17T16:10:09.356Z,63.70
2022-08-17T16:12:36.644Z,63.70
2022-08-17T16:15:05.143Z,64.00
2022-08-17T16:17:49.470Z,63.70
2022-08-17T16:20:19.642Z,63.70
2022-08-17T16:22:46.705Z,63.20
2022-08-17T16:25:18.662Z,63.50
2022-08-17T16:27:48.242Z,63.50
2022-08-17T16:30:21.794Z,63.70
2022-08-17T16:32:53.549Z,63.80
2022-08-17T16:35:22.543Z,64.00
2022-08-17T16:37:49.424Z,64.20
2022-08-17T16:40:17.019Z,64.20
2022-08-17T16:42:46.676Z,64.40
2022-08-17T16:45:20.039Z,64.60
2022-08-17T16:47:49.842Z,64.90
2022-08-17T16:50:19.610Z,65.00
2022-08-17T16:52:50.243Z,65.10
2022-08-17T16:55:22.211Z,64.90
2022-08-17T16:57:50.412Z,65.30
2022-08-17T17:00:19.440Z,65.80
2022-08-17T17:02:47.990Z,65.90
2022-08-17T17:05:44.813Z,66.00
2022-08-17T17:08:30.604Z,65.90
2022-08-17T17:11:03.608Z,66.50
2022-08-17T17:13:43.903Z,66.80
2022-08-17T17:16:26.230Z,67.00
2022-08-17T17:19:09.391Z,67.10
2022-08-17T17:21:43.908Z,68.00
2022-08-17T17:24:16.554Z,68.50
2022-08-17T17:27:07.709Z,68.50
2022-08-17T17:30:00.829Z,68.70
2022-08-17T17:32:39.474Z,68.60
2022-08-17T17:35:21.431Z,68.40
2022-08-17T17:37:50.034Z,69.00
2022-08-17T17:40:26.638Z,69.70
2022-08-17T17:42:56.416Z,69.80
2022-08-17T17:45:37.390Z,69.60
2022-08-17T17:48:04.290Z,69.60
2022-08-17T17:50:44.137Z,69.30
2022-08-17T17:53:34.872Z,68.70
2022-08-17T17:56:46.227Z,68.50
2022-08-17T17:59:18.997Z,69.00
2022-08-17T18:02:42.163Z,69.80
2022-08-17T18:05:39.419Z,69.50
2022-08-17T18:08:34.697Z,69.20
2022-08-17T18:11:35.098Z,69.20
2022-08-17T18:14:37.318Z,69.10
2022-08-17T18:17:05.748Z,69.40
2022-08-17T18:19:32.860Z,69.50
2022-08-17T18:22:18.595Z,69.20
2022-08-17T18:24:55.842Z,69.00
2022-08-17T18:27:33.045Z,69.30
2022-08-17T18:30:05.896Z,69.40
2022-08-17T18:32:37.225Z,69.50
2022-08-17T18:35:10.016Z,70.00
2022-08-17T18:37:47.695Z,70.50
2022-08-17T18:40:17.297Z,70.60
2022-08-17T18:43:02.943Z,70.70
2022-08-17T18:45:51.969Z,70.60
2022-08-17T18:48:36.711Z,71.10
2022-08-17T18:51:42.219Z,71.00
2022-08-17T18:54:22.794Z,70.80
2022-08-17T18:56:56.172Z,70.70
2022-08-17T18:59:31.849Z,70.60
2022-08-17T19:02:24.228Z,70.50
2022-08-17T19:05:28.186Z,70.60
2022-08-17T19:08:22.414Z,70.80
2022-08-17T19:11:11.820Z,70.80
2022-08-17T19:13:45.434Z,70.80
2022-08-17T19:16:41.145Z,71.00
2022-08-17T19:19:23.296Z,70.80
2022-08-17T19:21:59.735Z,71.00
2022-08-17T19:24:29.872Z,71.10
2022-08-17T19:27:34.946Z,70.90
2022-08-17T19:30:16.404Z,70.90
2022-08-17T19:32:43.440Z,71.20
2022-08-17T19:35:17.299Z,72.20
2022-08-17T19:38:26.559Z,73.10
2022-08-17T19:41:02.773Z,73.40
2022-08-17T19:43:58.612Z,73.10
2022-08-17T19:46:49.916Z,72.60
2022-08-17T19:49:46.565Z,72.40
2022-08-17T19:52:43.035Z,72.40
2022-08-17T19:55:21.006Z,72.40
2022-08-17T19:58:11.680Z,72.20
2022-08-17T20:01:05.528Z,72.10
2022-08-17T20:03:50.982Z,72.20
2022-08-17T20:06:44.306Z,73.00
2022-08-17T20:09:20.054Z,73.60
2022-08-17T20:11:54.851Z,73.60
2022-08-17T20:14:35.595Z,73.70
2022-08-17T20:17:06.113Z,73.60
2022-08-17T20:19:38.850Z,73.30
2022-08-17T20:22:13.421Z,73.00
2022-08-17T20:25:14.888Z,73.00
2022-08-17T20:28:00.633Z,72.90
2022-08-17T20:30:38.049Z,73.00
2022-08-17T20:33:08.692Z,72.90
2022-08-17T20:36:02.633Z,72.80
2022-08-17T20:38:56.349Z,72.80
2022-08-17T20:41:29.335Z,73.00
2022-08-17T20:43:59.117Z,73.10
2022-08-17T20:46:38.137Z,73.10
2022-08-17T20:49:38.181Z,73.10
2022-08-17T20:52:16.596Z,73.70
2022-08-17T20:55:00.410Z,74.10
2022-08-17T20:57:33.399Z,74.50
2022-08-17T21:00:29.137Z,74.40
2022-08-17T21:03:23.997Z,74.40
2022-08-17T21:06:14.440Z,74.30
2022-08-17T21:09:01.463Z,74.00
2022-08-17T21:11:57.303Z,73.80
2022-08-17T21:15:03.917Z,74.10
2022-08-17T21:17:59.144Z,74.10
2022-08-17T21:20:45.386Z,74.30
2022-08-17T21:23:41.851Z,74.50
2022-08-17T21:26:20.707Z,74.70
2022-08-17T21:29:17.192Z,74.80
2022-08-17T21:32:03.535Z,74.70
2022-08-17T21:34:32.902Z,74.50
2022-08-17T21:37:19.959Z,74.30
2022-08-17T21:40:18.316Z,74.30
2022-08-17T21:43:08.316Z,74.40
2022-08-17T21:45:41.162Z,74.90
2022-08-17T21:48:16.028Z,75.70
2022-08-17T21:51:12.115Z,76.30
2022-08-17T21:53:51.940Z,76.10
2022-08-17T21:56:32.822Z,76.00
2022-08-17T21:59:05.736Z,76.40
2022-08-17T22:01:39.346Z,76.50
2022-08-17T22:04:11.993Z,76.30
2022-08-17T22:06:42.308Z,76.00
2022-08-17T22:09:23.613Z,75.60
2022-08-17T22:12:20.942Z,75.10
2022-08-17T22:15:06.033Z,74.60
2022-08-17T22:17:36.365Z,74.20
2022-08-17T22:20:19.231Z,74.20
2022-08-17T22:23:04.523Z,74.30
2022-08-17T22:25:35.988Z,74.00
2022-08-17T22:28:09.088Z,74.00
2022-08-17T22:30:39.457Z,74.00
2022-08-17T22:33:37.263Z,74.20
2022-08-17T22:36:39.501Z,74.50
2022-08-17T22:39:08.882Z,75.20
2022-08-17T22:41:48.116Z,76.00
2022-08-17T22:44:27.767Z,76.40
2022-08-17T22:47:13.110Z,77.00
2022-08-17T22:50:01.386Z,77.50
2022-08-17T22:52:59.191Z,78.10
2022-08-17T22:55:45.815Z,78.60
2022-08-17T22:58:40.324Z,78.30
2022-08-17T23:01:26.241Z,77.90
2022-08-17T23:03:56.228Z,77.90
2022-08-17T23:06:24.302Z,78.50
2022-08-17T23:08:56.412Z,78.50
2022-08-17T23:11:36.619Z,77.80
2022-08-17T23:14:15.737Z,77.20
2022-08-17T23:16:42.955Z,77.00
2022-08-17T23:19:11.557Z,77.00
2022-08-17T23:21:38.453Z,77.30
2022-08-17T23:24:07.591Z,77.80
2022-08-17T23:26:37.926Z,77.80
2022-08-17T23:29:08.905Z,77.60
2022-08-17T23:31:37.171Z,77.20
2022-08-17T23:34:08.934Z,77.20
2022-08-17T23:36:36.390Z,77.50
2022-08-17T23:39:04.617Z,77.90
2022-08-17T23:41:35.659Z,77.40
2022-08-17T23:44:05.491Z,78.20
2022-08-17T23:46:32.728Z,78.90
2022-08-17T23:48:59.511Z,78.90
2022-08-17T23:51:34.504Z,79.00
2022-08-17T23:54:19.438Z,79.30
2022-08-17T23:56:49.194Z,79.40
2022-08-17T23:59:18.496Z,79.70
